createdAt,value
2023-01-11T00:03:20.905Z,74.60
2023-01-11T00:08:25.489Z,74.70
2023-01-11T00:13:30.794Z,74.70
2023-01-11T00:18:34.680Z,74.80
2023-01-11T00:23:39.950Z,74.90
2023-01-11T00:28:45.062Z,74.90
2023-01-11T00:33:49.099Z,74.90
2023-01-11T00:38:54.191Z,74.90
2023-01-11T00:44:16.965Z,75.10
2023-01-11T00:49:20.961Z,75.60
2023-01-11T00:54:24.716Z,75.80
2023-01-11T00:59:29.830Z,75.80
2023-01-11T01:04:33.813Z,76.30
2023-01-11T01:09:37.526Z,76.30
2023-01-11T01:14:44.804Z,76.30
2023-01-11T01:19:48.590Z,76.30
2023-01-11T01:24:52.240Z,75.90
2023-01-11T01:29:57.348Z,76.00
2023-01-11T01:35:01.197Z,76.00
2023-01-11T01:40:05.700Z,76.00
2023-01-11T01:45:23.908Z,76.10
2023-01-11T01:50:33.150Z,76.20
2023-01-11T01:55:41.673Z,76.70
2023-01-11T02:00:48.282Z,76.90
2023-01-11T02:05:53.955Z,76.20
2023-01-11T02:10:58.465Z,75.70
2023-01-11T02:16:12.621Z,75.20
2023-01-11T02:21:27.041Z,75.10
2023-01-11T02:27:22.922Z,75.10
2023-01-11T02:32:39.613Z,75.10
2023-01-11T02:37:56.873Z,74.90
2023-01-11T02:43:27.695Z,74.70
2023-01-11T02:48:43.433Z,74.70
2023-01-11T02:53:53.104Z,74.90
2023-01-11T02:58:59.264Z,74.90
2023-01-11T03:04:04.422Z,74.70
2023-01-11T03:09:21.512Z,74.70
2023-01-11T03:14:35.991Z,74.90
2023-01-11T03:19:50.458Z,75.00
2023-01-11T03:25:10.358Z,75.10
2023-01-11T03:30:24.514Z,75.30
2023-01-11T03:35:38.668Z,75.50
2023-01-11T03:40:48.357Z,75.80
2023-01-11T03:45:57.336Z,76.10
2023-01-11T03:51:04.723Z,76.30
2023-01-11T03:56:14.317Z,76.40
2023-01-11T04:01:18.174Z,76.40
2023-01-11T04:06:25.675Z,76.40
2023-01-11T04:11:29.499Z,76.30
2023-01-11T04:16:33.177Z,76.30
2023-01-11T04:21:38.210Z,76.20
2023-01-11T04:26:42.064Z,75.90
2023-01-11T04:31:45.812Z,75.60
2023-01-11T04:36:50.954Z,75.40
2023-01-11T04:42:12.143Z,75.20
2023-01-11T04:47:16.611Z,75.90
2023-01-11T04:52:22.223Z,75.00
2023-01-11T04:57:26.405Z,74.90
2023-01-11T05:02:30.035Z,75.00
2023-01-11T05:07:35.269Z,75.00
2023-01-11T05:12:38.964Z,75.10
2023-01-11T05:17:42.685Z,75.10
2023-01-11T05:22:47.898Z,75.20
2023-01-11T05:27:51.471Z,75.30
2023-01-11T05:32:56.567Z,75.30
2023-01-11T05:38:01.689Z,75.60
2023-01-11T05:43:05.786Z,75.80
2023-01-11T05:48:09.547Z,75.90
2023-01-11T05:53:14.558Z,76.00
2023-01-11T05:58:18.195Z,76.10
2023-01-11T06:03:24.477Z,76.20
2023-01-11T06:08:29.710Z,76.30
2023-01-11T06:13:34.043Z,76.30
2023-01-11T06:18:41.660Z,76.40
2023-01-11T06:23:51.265Z,76.70
2023-01-11T06:28:55.146Z,76.70
2023-01-11T06:33:58.898Z,76.80
2023-01-11T06:39:04.650Z,75.70
2023-01-11T06:44:08.475Z,75.40
2023-01-11T06:49:12.893Z,75.30
2023-01-11T06:54:22.005Z,75.10
2023-01-11T06:59:26.945Z,75.00
2023-01-11T07:04:31.011Z,75.00
2023-01-11T07:09:36.148Z,75.20
2023-01-11T07:14:39.866Z,75.00
2023-01-11T07:19:43.581Z,75.10
2023-01-11T07:24:48.625Z,75.00
2023-01-11T07:29:53.532Z,75.00
2023-01-11T07:34:57.645Z,75.20
2023-01-11T07:40:02.903Z,75.40
2023-01-11T07:45:08.740Z,75.40
2023-01-11T07:50:12.811Z,75.80
2023-01-11T07:55:18.552Z,76.40
2023-01-11T08:00:24.394Z,76.40
2023-01-11T08:05:29.845Z,75.90
2023-01-11T08:10:35.702Z,74.00
2023-01-11T08:15:42.471Z,72.60
2023-01-11T08:20:47.719Z,71.20
2023-01-11T08:25:58.734Z,70.10
2023-01-11T08:31:09.407Z,69.40
2023-01-11T08:36:14.753Z,69.00
2023-01-11T08:41:19.971Z,70.00
2023-01-11T08:46:23.769Z,70.30
2023-01-11T08:51:27.557Z,70.60
2023-01-11T08:56:32.561Z,71.10
2023-01-11T09:01:37.908Z,71.30
2023-01-11T09:06:41.773Z,71.60
2023-01-11T09:11:56.959Z,71.80
2023-01-11T09:17:01.206Z,72.00
2023-01-11T09:22:04.985Z,72.30
2023-01-11T09:27:11.769Z,72.40
2023-01-11T09:32:15.809Z,72.50
2023-01-11T09:37:20.131Z,72.80
2023-01-11T09:42:37.554Z,72.90
2023-01-11T09:47:48.174Z,73.00
2023-01-11T09:52:56.498Z,73.20
2023-01-11T09:58:37.971Z,73.30
2023-01-11T10:04:25.899Z,73.30
2023-01-11T10:18:22.983Z,73.50
2023-01-11T10:20:50.496Z,73.50
2023-01-11T10:26:01.861Z,73.60
2023-01-11T10:31:29.939Z,73.50
2023-01-11T10:36:59.414Z,73.50
2023-01-11T10:42:11.768Z,73.40
2023-01-11T10:47:21.507Z,73.40
2023-01-11T10:52:37.457Z,73.50
2023-01-11T10:58:03.503Z,73.40
2023-01-11T11:03:48.437Z,73.60
2023-01-11T11:08:59.528Z,73.60
2023-01-11T11:14:13.872Z,73.60
2023-01-11T11:19:26.827Z,73.60
2023-01-11T11:24:38.904Z,73.50
2023-01-11T11:29:46.330Z,73.50
2023-01-11T11:34:53.269Z,73.40
2023-01-11T11:39:57.906Z,73.40
2023-01-11T11:45:19.447Z,73.40
2023-01-11T11:50:44.153Z,73.40
2023-01-11T11:55:48.684Z,73.40
2023-01-11T12:00:54.510Z,73.50
2023-01-11T12:06:02.838Z,74.50
2023-01-11T12:11:09.410Z,74.20
2023-01-11T12:16:23.769Z,74.30
2023-01-11T12:21:31.451Z,74.40
2023-01-11T12:26:45.102Z,74.40
2023-01-11T12:32:20.167Z,74.40
2023-01-11T12:37:50.264Z,74.40
2023-01-11T12:43:33.083Z,74.80
2023-01-11T12:49:21.374Z,74.90
2023-01-11T12:55:01.849Z,74.80
2023-01-11T13:00:36.064Z,74.60
2023-01-11T13:05:56.035Z,74.40
2023-01-11T13:11:34.939Z,74.40
2023-01-11T13:16:46.899Z,74.30
2023-01-11T13:21:54.271Z,74.20
2023-01-11T13:27:05.421Z,74.20
2023-01-11T13:32:16.363Z,74.00
2023-01-11T13:37:27.427Z,74.00
2023-01-11T13:42:41.329Z,73.90
2023-01-11T13:47:50.775Z,73.90
2023-01-11T13:53:07.115Z,73.90
2023-01-11T13:58:23.390Z,73.80
2023-01-11T14:03:34.329Z,73.80
2023-01-11T14:09:09.287Z,73.70
2023-01-11T14:14:49.499Z,73.80
2023-01-11T14:20:03.674Z,73.70
2023-01-11T14:25:17.223Z,73.70
2023-01-11T14:31:03.769Z,73.70
2023-01-11T14:37:11.495Z,73.60
2023-01-11T15:21:55.215Z,73.40
2023-01-11T15:27:02.045Z,74.10
2023-01-11T15:32:20.140Z,73.40
2023-01-11T15:37:52.353Z,73.40
2023-01-11T15:43:47.864Z,73.40
2023-01-11T16:14:51.944Z,73.50
2023-01-11T16:19:57.702Z,73.50
2023-01-11T16:25:02.863Z,74.30
2023-01-11T16:30:17.079Z,74.20
2023-01-11T16:35:25.043Z,74.30
2023-01-11T16:40:33.028Z,72.60
2023-01-11T16:45:43.968Z,70.70
2023-01-11T16:51:01.000Z,69.40
2023-01-11T16:56:09.071Z,69.10
2023-01-11T17:01:16.555Z,67.90
2023-01-11T17:06:23.192Z,67.10
2023-01-11T17:11:33.715Z,66.20
2023-01-11T17:16:42.040Z,65.70
2023-01-11T17:21:52.039Z,64.90
2023-01-11T17:27:00.551Z,64.40
2023-01-11T17:32:13.364Z,65.10
2023-01-11T17:37:20.294Z,65.50
2023-01-11T17:42:42.668Z,66.40
2023-01-11T17:47:51.248Z,67.00
2023-01-11T17:53:06.949Z,67.10
2023-01-11T17:58:20.104Z,67.60
2023-01-11T18:03:25.583Z,68.80
2023-01-11T18:08:29.590Z,70.00
2023-01-11T18:13:35.878Z,70.40
2023-01-11T18:18:48.433Z,70.70
2023-01-11T18:24:25.514Z,69.70
2023-01-11T18:29:51.125Z,68.80
2023-01-11T18:34:56.815Z,68.20
2023-01-11T18:40:01.530Z,67.80
2023-01-11T18:45:06.549Z,67.20
2023-01-11T18:50:14.648Z,66.80
2023-01-11T18:55:18.991Z,66.80
2023-01-11T19:00:23.459Z,66.90
2023-01-11T19:05:28.664Z,67.00
2023-01-11T19:10:33.300Z,67.20
2023-01-11T19:15:37.322Z,67.50
2023-01-11T19:20:42.754Z,67.60
2023-01-11T19:25:46.516Z,67.90
2023-01-11T19:30:51.021Z,68.50
2023-01-11T19:35:56.242Z,68.90
2023-01-11T19:41:07.708Z,69.00
2023-01-11T19:46:13.591Z,69.10
2023-01-11T19:51:18.938Z,69.00
2023-01-11T19:56:22.814Z,69.10
2023-01-11T20:01:26.872Z,69.00
2023-01-11T20:06:32.806Z,69.00
2023-01-11T20:11:36.621Z,69.10
2023-01-11T20:16:40.420Z,69.40
2023-01-11T20:21:45.654Z,69.20
2023-01-11T20:26:49.743Z,69.20
2023-01-11T20:31:53.885Z,69.90
2023-01-11T20:36:59.375Z,69.30
2023-01-11T20:42:03.472Z,69.20
2023-01-11T20:47:07.528Z,69.60
2023-01-11T20:52:12.724Z,69.70
2023-01-11T20:57:16.490Z,69.30
2023-01-11T21:02:20.382Z,69.70
2023-01-11T21:07:25.505Z,69.60
2023-01-11T21:12:29.381Z,69.60
2023-01-11T21:17:33.452Z,69.50
2023-01-11T21:22:38.602Z,69.50
2023-01-11T21:27:42.498Z,69.40
2023-01-11T21:32:46.436Z,69.40
2023-01-11T21:37:51.855Z,69.40
2023-01-11T21:42:56.712Z,69.40
2023-01-11T21:48:00.520Z,69.40
2023-01-11T21:53:05.728Z,71.20
2023-01-11T21:58:09.523Z,74.00
2023-01-11T22:03:13.313Z,73.70
2023-01-11T22:08:18.526Z,76.60
2023-01-11T22:13:22.301Z,75.50
2023-01-11T22:18:26.083Z,75.40
2023-01-11T22:23:31.174Z,75.30
2023-01-11T22:28:55.282Z,75.30
2023-01-11T22:33:59.554Z,75.10
2023-01-11T22:39:05.017Z,75.10
2023-01-11T22:44:10.498Z,75.10
2023-01-11T22:49:14.896Z,75.10
2023-01-11T22:54:20.483Z,75.10
2023-01-11T22:59:24.327Z,75.00
2023-01-11T23:04:28.132Z,74.90
2023-01-11T23:09:33.382Z,74.90
2023-01-11T23:14:37.027Z,74.90
2023-01-11T23:19:42.669Z,74.90
2023-01-11T23:24:47.887Z,74.90
2023-01-11T23:29:51.600Z,75.00
2023-01-11T23:34:55.316Z,75.00
2023-01-11T23:40:00.367Z,74.90
2023-01-11T23:45:05.987Z,75.00
2023-01-11T23:50:11.577Z,75.00
2023-01-11T23:55:17.122Z,75.10
